sensor_id;sensor_type;location;lat;lon;timestamp;pressure;altitude;pressure_sealevel;temperature;humidity
62059;BME280;48017;51.064;7.014;2022-12-29T00:02:15;99720.13;;;8.87;100.00
62059;BME280;48017;51.064;7.014;2022-12-29T00:04:41;99711.53;;;8.85;100.00
62059;BME280;48017;51.064;7.014;2022-12-29T00:07:07;99706.25;;;8.85;100.00
62059;BME280;48017;51.064;7.014;2022-12-29T00:09:34;99705.13;;;8.78;100.00
62059;BME280;48017;51.064;7.014;2022-12-29T00:12:00;99694.13;;;8.92;100.00
62059;BME280;48017;51.064;7.014;2022-12-29T00:14:26;99678.97;;;8.85;100.00
62059;BME280;48017;51.064;7.014;2022-12-29T00:17:11;99679.81;;;8.85;100.00
62059;BME280;48017;51.064;7.014;2022-12-29T00:19:36;99685.38;;;8.92;100.00
62059;BME280;48017;51.064;7.014;2022-12-29T00:22:20;99683.13;;;8.97;100.00
62059;BME280;48017;51.064;7.014;2022-12-29T00:25:05;99680.91;;;9.02;100.00
62059;BME280;48017;51.064;7.014;2022-12-29T00:27:31;99675.75;;;9.01;100.00
62059;BME280;48017;51.064;7.014;2022-12-29T00:30:20;99667.97;;;8.99;100.00
62059;BME280;48017;51.064;7.014;2022-12-29T00:33:28;99656.41;;;9.00;100.00
62059;BME280;48017;51.064;7.014;2022-12-29T00:36:18;99658.06;;;9.11;100.00
62059;BME280;48017;51.064;7.014;2022-12-29T00:38:50;99653.59;;;9.11;100.00
62059;BME280;48017;51.064;7.014;2022-12-29T00:41:35;99660.25;;;9.25;100.00
62059;BME280;48017;51.064;7.014;2022-12-29T00:44:19;99657.72;;;9.33;100.00
62059;BME280;48017;51.064;7.014;2022-12-29T00:46:44;99657.41;;;9.36;100.00
62059;BME280;48017;51.064;7.014;2022-12-29T00:49:12;99648.38;;;9.29;100.00
62059;BME280;48017;51.064;7.014;2022-12-29T00:54:26;99646.63;;;9.47;100.00
62059;BME280;48017;51.064;7.014;2022-12-29T00:56:52;99632.88;;;9.44;100.00
62059;BME280;48017;51.064;7.014;2022-12-29T00:59:18;99646.22;;;9.52;100.00
62059;BME280;48017;51.064;7.014;2022-12-29T01:01:44;99639.38;;;9.49;100.00
62059;BME280;48017;51.064;7.014;2022-12-29T01:04:10;99639.78;;;9.55;100.00
62059;BME280;48017;51.064;7.014;2022-12-29T01:06:38;99637.56;;;9.50;100.00
62059;BME280;48017;51.064;7.014;2022-12-29T01:09:04;99650.91;;;9.58;100.00
62059;BME280;48017;51.064;7.014;2022-12-29T01:11:48;99645.63;;;9.58;100.00
62059;BME280;48017;51.064;7.014;2022-12-29T01:14:14;99658.28;;;9.64;100.00
62059;BME280;48017;51.064;7.014;2022-12-29T01:16:39;99670.00;;;9.62;100.00
62059;BME280;48017;51.064;7.014;2022-12-29T01:19:05;99650.38;;;9.55;100.00
62059;BME280;48017;51.064;7.014;2022-12-29T01:21:30;99658.84;;;9.58;100.00
62059;BME280;48017;51.064;7.014;2022-12-29T01:23:55;99665.97;;;9.58;100.00
62059;BME280;48017;51.064;7.014;2022-12-29T01:26:21;99670.00;;;9.62;100.00
62059;BME280;48017;51.064;7.014;2022-12-29T01:28:46;99683.72;;;9.75;100.00
62059;BME280;48017;51.064;7.014;2022-12-29T01:31:13;99666.16;;;9.74;100.00
62059;BME280;48017;51.064;7.014;2022-12-29T01:33:40;99654.06;;;9.71;100.00
62059;BME280;48017;51.064;7.014;2022-12-29T01:36:11;99647.75;;;9.82;100.00
62059;BME280;48017;51.064;7.014;2022-12-29T01:38:38;99641.38;;;9.75;100.00
62059;BME280;48017;51.064;7.014;2022-12-29T01:41:05;99652.78;;;9.75;100.00
62059;BME280;48017;51.064;7.014;2022-12-29T01:46:32;99652.78;;;9.75;100.00
62059;BME280;48017;51.064;7.014;2022-12-29T01:49:10;99655.88;;;9.71;100.00
62059;BME280;48017;51.064;7.014;2022-12-29T01:51:44;99653.81;;;9.65;100.00
62059;BME280;48017;51.064;7.014;2022-12-29T01:54:23;99644.88;;;9.66;100.00
62059;BME280;48017;51.064;7.014;2022-12-29T01:56:51;99640.91;;;9.79;100.00
62059;BME280;48017;51.064;7.014;2022-12-29T01:59:22;99637.44;;;9.79;100.00
62059;BME280;48017;51.064;7.014;2022-12-29T02:01:50;99632.19;;;9.69;100.00
62059;BME280;48017;51.064;7.014;2022-12-29T02:04:16;99618.50;;;10.01;100.00
62059;BME280;48017;51.064;7.014;2022-12-29T02:06:46;99620.06;;;9.94;100.00
62059;BME280;48017;51.064;7.014;2022-12-29T02:09:13;99616.81;;;10.18;100.00
62059;BME280;48017;51.064;7.014;2022-12-29T02:11:38;99616.19;;;10.34;100.00
62059;BME280;48017;51.064;7.014;2022-12-29T02:14:09;99615.78;;;10.29;100.00
62059;BME280;48017;51.064;7.014;2022-12-29T02:17:00;99614.66;;;10.49;100.00
62059;BME280;48017;51.064;7.014;2022-12-29T02:25:05;99601.38;;;10.93;100.00
62059;BME280;48017;51.064;7.014;2022-12-29T02:33:34;99600.63;;;10.83;100.00
62059;BME280;48017;51.064;7.014;2022-12-29T02:36:21;99591.97;;;11.24;95.18
62059;BME280;48017;51.064;7.014;2022-12-29T02:38:52;99592.53;;;11.10;95.85
62059;BME280;48017;51.064;7.014;2022-12-29T02:47:06;99577.97;;;11.14;95.07
62059;BME280;48017;51.064;7.014;2022-12-29T02:49:47;99577.56;;;11.01;96.70
62059;BME280;48017;51.064;7.014;2022-12-29T02:52:23;99575.66;;;10.85;98.12
62059;BME280;48017;51.064;7.014;2022-12-29T02:54:53;99566.16;;;10.83;98.10
62059;BME280;48017;51.064;7.014;2022-12-29T02:59:54;99590.75;;;10.93;96.46
62059;BME280;48017;51.064;7.014;2022-12-29T03:02:50;99571.38;;;10.92;97.04
62059;BME280;48017;51.064;7.014;2022-12-29T03:05:29;99561.47;;;10.94;97.15
62059;BME280;48017;51.064;7.014;2022-12-29T03:08:27;99564.72;;;10.88;97.32
62059;BME280;48017;51.064;7.014;2022-12-29T03:11:06;99558.44;;;10.89;97.46
62059;BME280;48017;51.064;7.014;2022-12-29T03:14:17;99556.78;;;10.88;97.60
62059;BME280;48017;51.064;7.014;2022-12-29T03:17:01;99555.94;;;10.88;97.84
62059;BME280;48017;51.064;7.014;2022-12-29T03:19:35;99559.94;;;10.92;98.46
62059;BME280;48017;51.064;7.014;2022-12-29T03:24:53;99539.81;;;10.81;100.00
62059;BME280;48017;51.064;7.014;2022-12-29T03:27:41;99547.59;;;10.75;100.00
62059;BME280;48017;51.064;7.014;2022-12-29T03:30:08;99534.69;;;10.80;100.00
62059;BME280;48017;51.064;7.014;2022-12-29T03:32:47;99543.28;;;10.82;100.00
62059;BME280;48017;51.064;7.014;2022-12-29T03:35:16;99533.72;;;10.89;100.00
62059;BME280;48017;51.064;7.014;2022-12-29T03:37:55;99533.38;;;10.84;100.00
62059;BME280;48017;51.064;7.014;2022-12-29T03:40:24;99531.19;;;10.79;100.00
62059;BME280;48017;51.064;7.014;2022-12-29T03:42:52;99545.34;;;10.88;100.00
62059;BME280;48017;51.064;7.014;2022-12-29T03:45:19;99548.56;;;10.74;100.00
62059;BME280;48017;51.064;7.014;2022-12-29T03:47:44;99551.16;;;10.65;100.00
62059;BME280;48017;51.064;7.014;2022-12-29T03:50:12;99549.59;;;10.81;100.00
62059;BME280;48017;51.064;7.014;2022-12-29T03:52:37;99535.66;;;10.79;100.00
62059;BME280;48017;51.064;7.014;2022-12-29T03:55:03;99526.38;;;10.75;100.00
62059;BME280;48017;51.064;7.014;2022-12-29T03:57:28;99524.06;;;10.80;100.00
62059;BME280;48017;51.064;7.014;2022-12-29T03:59:53;99518.25;;;10.76;100.00
62059;BME280;48017;51.064;7.014;2022-12-29T04:02:19;99513.31;;;10.81;100.00
62059;BME280;48017;51.064;7.014;2022-12-29T04:04:44;99510.50;;;10.83;100.00
62059;BME280;48017;51.064;7.014;2022-12-29T04:07:09;99513.84;;;10.85;100.00
62059;BME280;48017;51.064;7.014;2022-12-29T04:09:35;99506.72;;;10.85;100.00
62059;BME280;48017;51.064;7.014;2022-12-29T04:12:00;99519.16;;;10.93;100.00
62059;BME280;48017;51.064;7.014;2022-12-29T04:14:25;99515.53;;;10.94;100.00
62059;BME280;48017;51.064;7.014;2022-12-29T04:16:51;99505.56;;;10.88;100.00
62059;BME280;48017;51.064;7.014;2022-12-29T04:19:16;99516.50;;;10.93;100.00
62059;BME280;48017;51.064;7.014;2022-12-29T04:21:41;99503.56;;;10.90;100.00
62059;BME280;48017;51.064;7.014;2022-12-29T04:24:07;99506.31;;;11.06;100.00
62059;BME280;48017;51.064;7.014;2022-12-29T04:26:33;99493.41;;;10.77;100.00
62059;BME280;48017;51.064;7.014;2022-12-29T04:28:58;99495.44;;;10.83;100.00
62059;BME280;48017;51.064;7.014;2022-12-29T04:31:24;99485.97;;;10.81;100.00
62059;BME280;48017;51.064;7.014;2022-12-29T04:33:49;99498.88;;;10.76;100.00
62059;BME280;48017;51.064;7.014;2022-12-29T04:36:14;99508.94;;;10.72;100.00
62059;BME280;48017;51.064;7.014;2022-12-29T04:38:40;99505.19;;;10.83;100.00
62059;BME280;48017;51.064;7.014;2022-12-29T04:41:05;99504.56;;;10.89;100.00
62059;BME280;48017;51.064;7.014;2022-12-29T04:43:30;99511.53;;;10.90;100.00
62059;BME280;48017;51.064;7.014;2022-12-29T04:45:56;99520.16;;;10.92;100.00
62059;BME280;48017;51.064;7.014;2022-12-29T04:48:21;99533.13;;;10.95;100.00
62059;BME280;48017;51.064;7.014;2022-12-29T04:50:50;99517.81;;;10.89;100.00
62059;BME280;48017;51.064;7.014;2022-12-29T04:53:16;99537.00;;;10.83;100.00
62059;BME280;48017;51.064;7.014;2022-12-29T04:55:42;99516.16;;;10.88;100.00
62059;BME280;48017;51.064;7.014;2022-12-29T04:58:08;99523.28;;;10.87;100.00
62059;BME280;48017;51.064;7.014;2022-12-29T05:00:33;99526.72;;;10.80;100.00
62059;BME280;48017;51.064;7.014;2022-12-29T05:02:59;99520.13;;;10.84;100.00
62059;BME280;48017;51.064;7.014;2022-12-29T05:05:24;99516.50;;;10.93;100.00
62059;BME280;48017;51.064;7.014;2022-12-29T05:07:49;99520.03;;;11.02;100.00
62059;BME280;48017;51.064;7.014;2022-12-29T05:10:15;99521.19;;;10.99;100.00
62059;BME280;48017;51.064;7.014;2022-12-29T05:12:40;99522.19;;;10.98;99.82
62059;BME280;48017;51.064;7.014;2022-12-29T05:15:07;99520.03;;;11.02;99.67
62059;BME280;48017;51.064;7.014;2022-12-29T05:17:33;99512.59;;;11.05;98.68
62059;BME280;48017;51.064;7.014;2022-12-29T05:19:59;99516.59;;;11.09;97.43
62059;BME280;48017;51.064;7.014;2022-12-29T05:22:24;99538.47;;;11.11;96.85
62059;BME280;48017;51.064;7.014;2022-12-29T05:24:49;99532.88;;;11.14;95.90
62059;BME280;48017;51.064;7.014;2022-12-29T05:27:15;99537.19;;;11.15;96.04
62059;BME280;48017;51.064;7.014;2022-12-29T05:29:40;99560.06;;;11.16;95.42
62059;BME280;48017;51.064;7.014;2022-12-29T05:32:05;99557.91;;;11.20;94.72
62059;BME280;48017;51.064;7.014;2022-12-29T05:34:31;99546.16;;;11.14;95.17
62059;BME280;48017;51.064;7.014;2022-12-29T05:36:56;99540.50;;;11.17;94.13
62059;BME280;48017;51.064;7.014;2022-12-29T05:39:22;99552.78;;;11.18;94.06
62059;BME280;48017;51.064;7.014;2022-12-29T05:41:47;99546.16;;;11.22;92.31
62059;BME280;48017;51.064;7.014;2022-12-29T05:44:12;99564.25;;;11.27;91.78
62059;BME280;48017;51.064;7.014;2022-12-29T05:46:38;99549.63;;;11.15;92.61
62059;BME280;48017;51.064;7.014;2022-12-29T05:49:04;99559.28;;;11.24;90.64
62059;BME280;48017;51.064;7.014;2022-12-29T05:51:30;99560.53;;;11.46;87.10
62059;BME280;48017;51.064;7.014;2022-12-29T05:53:55;99557.03;;;11.45;87.30
62059;BME280;48017;51.064;7.014;2022-12-29T05:56:21;99556.19;;;11.37;87.62
62059;BME280;48017;51.064;7.014;2022-12-29T05:58:47;99559.94;;;11.26;88.49
62059;BME280;48017;51.064;7.014;2022-12-29T06:01:12;99576.69;;;11.27;88.41
62059;BME280;48017;51.064;7.014;2022-12-29T06:03:37;99561.50;;;11.37;87.44
62059;BME280;48017;51.064;7.014;2022-12-29T06:06:03;99574.22;;;11.33;87.12
62059;BME280;48017;51.064;7.014;2022-12-29T06:08:28;99562.94;;;11.31;87.44
62059;BME280;48017;51.064;7.014;2022-12-29T06:10:54;99558.00;;;11.36;86.66
62059;BME280;48017;51.064;7.014;2022-12-29T06:13:19;99554.47;;;11.28;86.96
62059;BME280;48017;51.064;7.014;2022-12-29T06:15:44;99557.13;;;11.28;87.79
62059;BME280;48017;51.064;7.014;2022-12-29T06:18:10;99568.78;;;11.43;85.95
62059;BME280;48017;51.064;7.014;2022-12-29T06:20:35;99544.44;;;11.47;84.86
62059;BME280;48017;51.064;7.014;2022-12-29T06:23:00;99564.13;;;11.37;84.63
62059;BME280;48017;51.064;7.014;2022-12-29T06:25:26;99552.69;;;11.36;84.19
62059;BME280;48017;51.064;7.014;2022-12-29T06:27:51;99557.66;;;11.39;83.75
62059;BME280;48017;51.064;7.014;2022-12-29T06:30:17;99555.06;;;11.47;81.78
62059;BME280;48017;51.064;7.014;2022-12-29T06:32:42;99568.66;;;11.44;81.63
62059;BME280;48017;51.064;7.014;2022-12-29T06:35:08;99572.84;;;11.55;80.04
62059;BME280;48017;51.064;7.014;2022-12-29T06:37:34;99575.13;;;11.50;80.37
62059;BME280;48017;51.064;7.014;2022-12-29T06:39:59;99578.88;;;11.31;82.30
62059;BME280;48017;51.064;7.014;2022-12-29T06:42:24;99575.41;;;11.39;81.99
62059;BME280;48017;51.064;7.014;2022-12-29T06:44:50;99581.00;;;11.28;83.11
62059;BME280;48017;51.064;7.014;2022-12-29T06:47:15;99578.69;;;11.24;83.78
62059;BME280;48017;51.064;7.014;2022-12-29T06:49:41;99572.06;;;11.29;83.74
62059;BME280;48017;51.064;7.014;2022-12-29T06:52:06;99581.47;;;11.23;84.27
62059;BME280;48017;51.064;7.014;2022-12-29T06:54:31;99582.97;;;11.17;84.49
62059;BME280;48017;51.064;7.014;2022-12-29T06:56:57;99587.06;;;11.12;85.01
62059;BME280;48017;51.064;7.014;2022-12-29T06:59:23;99588.22;;;11.09;85.23
62059;BME280;48017;51.064;7.014;2022-12-29T07:01:49;99589.22;;;11.08;85.80
62059;BME280;48017;51.064;7.014;2022-12-29T07:04:14;99588.72;;;11.13;85.01
62059;BME280;48017;51.064;7.014;2022-12-29T07:06:39;99591.06;;;11.16;85.14
62059;BME280;48017;51.064;7.014;2022-12-29T07:09:06;99589.41;;;11.15;85.99
62059;BME280;48017;51.064;7.014;2022-12-29T07:11:32;99597.56;;;11.21;84.90
62059;BME280;48017;51.064;7.014;2022-12-29T07:13:57;99600.31;;;11.12;85.72
62059;BME280;48017;51.064;7.014;2022-12-29T07:16:22;99605.63;;;11.12;85.88
62059;BME280;48017;51.064;7.014;2022-12-29T07:18:48;99609.44;;;11.09;86.34
62059;BME280;48017;51.064;7.014;2022-12-29T07:21:13;99610.66;;;11.15;85.77
62059;BME280;48017;51.064;7.014;2022-12-29T07:23:39;99619.88;;;11.11;86.29
62059;BME280;48017;51.064;7.014;2022-12-29T07:26:06;99616.22;;;11.04;86.97
62059;BME280;48017;51.064;7.014;2022-12-29T07:28:32;99626.69;;;11.13;86.24
62059;BME280;48017;51.064;7.014;2022-12-29T07:30:59;99628.41;;;11.22;85.13
62059;BME280;48017;51.064;7.014;2022-12-29T07:33:24;99637.47;;;11.12;86.43
62059;BME280;48017;51.064;7.014;2022-12-29T07:35:50;99636.47;;;11.13;86.55
62059;BME280;48017;51.064;7.014;2022-12-29T07:38:16;99644.75;;;11.10;87.02
62059;BME280;48017;51.064;7.014;2022-12-29T07:40:42;99637.63;;;11.10;87.09
62059;BME280;48017;51.064;7.014;2022-12-29T07:43:07;99644.91;;;11.08;87.29
62059;BME280;48017;51.064;7.014;2022-12-29T07:45:33;99644.53;;;11.03;87.85
62059;BME280;48017;51.064;7.014;2022-12-29T07:47:58;99652.66;;;11.02;87.88
62059;BME280;48017;51.064;7.014;2022-12-29T07:50:23;99666.63;;;11.04;87.63
62059;BME280;48017;51.064;7.014;2022-12-29T07:52:49;99667.97;;;11.08;87.04
62059;BME280;48017;51.064;7.014;2022-12-29T07:55:15;99658.84;;;11.10;86.48
62059;BME280;48017;51.064;7.014;2022-12-29T07:57:40;99664.63;;;11.06;87.19
62059;BME280;48017;51.064;7.014;2022-12-29T08:00:06;99685.03;;;11.05;88.16
62059;BME280;48017;51.064;7.014;2022-12-29T08:02:32;99691.09;;;10.98;89.47
62059;BME280;48017;51.064;7.014;2022-12-29T08:04:57;99686.63;;;10.98;89.18
62059;BME280;48017;51.064;7.014;2022-12-29T08:07:22;99687.94;;;10.94;89.97
62059;BME280;48017;51.064;7.014;2022-12-29T08:09:48;99684.56;;;10.92;89.77
62059;BME280;48017;51.064;7.014;2022-12-29T08:12:13;99690.56;;;10.94;89.54
62059;BME280;48017;51.064;7.014;2022-12-29T08:14:38;99682.91;;;10.91;89.42
62059;BME280;48017;51.064;7.014;2022-12-29T08:17:04;99683.91;;;10.90;89.55
62059;BME280;48017;51.064;7.014;2022-12-29T08:19:29;99690.41;;;10.95;88.67
62059;BME280;48017;51.064;7.014;2022-12-29T08:21:54;99698.81;;;10.91;89.34
62059;BME280;48017;51.064;7.014;2022-12-29T08:24:20;99698.81;;;10.91;88.73
62059;BME280;48017;51.064;7.014;2022-12-29T08:26:45;99709.44;;;10.91;88.64
62059;BME280;48017;51.064;7.014;2022-12-29T08:29:11;99696.66;;;10.86;88.76
62059;BME280;48017;51.064;7.014;2022-12-29T08:31:36;99690.78;;;10.83;89.02
62059;BME280;48017;51.064;7.014;2022-12-29T08:34:02;99687.09;;;10.76;88.94
62059;BME280;48017;51.064;7.014;2022-12-29T08:36:29;99695.22;;;10.74;88.56
62059;BME280;48017;51.064;7.014;2022-12-29T08:38:55;99707.84;;;10.80;87.22
62059;BME280;48017;51.064;7.014;2022-12-29T08:41:21;99709.00;;;10.78;87.61
62059;BME280;48017;51.064;7.014;2022-12-29T08:43:47;99704.28;;;10.72;87.29
62059;BME280;48017;51.064;7.014;2022-12-29T08:46:13;99712.94;;;10.74;86.70
62059;BME280;48017;51.064;7.014;2022-12-29T08:48:38;99711.13;;;10.74;85.64
62059;BME280;48017;51.064;7.014;2022-12-29T08:51:04;99715.72;;;10.72;85.63
62059;BME280;48017;51.064;7.014;2022-12-29T08:53:29;99722.25;;;10.78;84.65
62059;BME280;48017;51.064;7.014;2022-12-29T08:55:59;99726.06;;;10.75;84.98
62059;BME280;48017;51.064;7.014;2022-12-29T08:58:25;99724.91;;;10.78;84.71
62059;BME280;48017;51.064;7.014;2022-12-29T09:00:55;99721.66;;;10.84;83.03
62059;BME280;48017;51.064;7.014;2022-12-29T09:03:21;99731.56;;;10.82;83.43
62059;BME280;48017;51.064;7.014;2022-12-29T09:05:48;99725.41;;;10.81;83.58
62059;BME280;48017;51.064;7.014;2022-12-29T09:08:14;99729.22;;;10.79;83.77
62059;BME280;48017;51.064;7.014;2022-12-29T09:10:40;99724.31;;;10.84;82.99
62059;BME280;48017;51.064;7.014;2022-12-29T09:13:05;99732.25;;;10.84;83.15
62059;BME280;48017;51.064;7.014;2022-12-29T09:15:30;99740.50;;;10.81;83.49
62059;BME280;48017;51.064;7.014;2022-12-29T09:17:56;99741.50;;;10.80;83.48
62059;BME280;48017;51.064;7.014;2022-12-29T09:20:21;99747.09;;;10.77;83.79
62059;BME280;48017;51.064;7.014;2022-12-29T09:22:47;99748.44;;;10.81;83.14
62059;BME280;48017;51.064;7.014;2022-12-29T09:25:13;99756.13;;;10.84;82.68
62059;BME280;48017;51.064;7.014;2022-12-29T09:27:39;99777.19;;;10.85;82.18
62059;BME280;48017;51.064;7.014;2022-12-29T09:30:07;99773.31;;;10.98;80.42
62059;BME280;48017;51.064;7.014;2022-12-29T09:32:33;99798.28;;;11.31;79.26
62059;BME280;48017;51.064;7.014;2022-12-29T09:34:59;99780.63;;;11.21;79.46
62059;BME280;48017;51.064;7.014;2022-12-29T09:37:24;99785.09;;;11.39;78.22
62059;BME280;48017;51.064;7.014;2022-12-29T09:39:50;99795.19;;;11.17;78.01
62059;BME280;48017;51.064;7.014;2022-12-29T09:46:18;99795.19;;;11.17;78.16
62059;BME280;48017;51.064;7.014;2022-12-29T09:48:30;99791.56;;;11.18;77.16
62059;BME280;48017;51.064;7.014;2022-12-29T09:51:01;99800.34;;;11.37;76.32
62059;BME280;48017;51.064;7.014;2022-12-29T09:54:19;99804.13;;;11.34;76.60
62059;BME280;48017;51.064;7.014;2022-12-29T09:56:25;99805.00;;;11.43;76.29
62059;BME280;48017;51.064;7.014;2022-12-29T09:59:00;99837.41;;;11.29;75.79
62059;BME280;48017;51.064;7.014;2022-12-29T10:01:31;99800.63;;;11.34;75.19
62059;BME280;48017;51.064;7.014;2022-12-29T10:03:58;99813.53;;;11.29;76.12
62059;BME280;48017;51.064;7.014;2022-12-29T10:22:50;99797.00;;;11.35;72.88
62059;BME280;48017;51.064;7.014;2022-12-29T10:25:25;99806.09;;;11.32;73.57
62059;BME280;48017;51.064;7.014;2022-12-29T10:27:53;99800.75;;;11.50;71.67
62059;BME280;48017;51.064;7.014;2022-12-29T10:30:22;99792.97;;;11.31;72.62
62059;BME280;48017;51.064;7.014;2022-12-29T10:32:52;99783.19;;;11.31;72.68
62059;BME280;48017;51.064;7.014;2022-12-29T10:35:31;99794.25;;;11.44;71.44
62059;BME280;48017;51.064;7.014;2022-12-29T10:38:33;99806.56;;;11.28;71.32
62059;BME280;48017;51.064;7.014;2022-12-29T10:44:02;99816.88;;;11.31;71.68
62059;BME280;48017;51.064;7.014;2022-12-29T10:46:32;99825.03;;;11.55;70.48
62059;BME280;48017;51.064;7.014;2022-12-29T10:48:58;99832.59;;;11.50;70.20
62059;BME280;48017;51.064;7.014;2022-12-29T10:51:28;99841.13;;;11.36;71.40
62059;BME280;48017;51.064;7.014;2022-12-29T10:56:35;99807.56;;;11.27;72.64
62059;BME280;48017;51.064;7.014;2022-12-29T10:59:31;99805.72;;;11.45;72.50
62059;BME280;48017;51.064;7.014;2022-12-29T11:05:02;99816.53;;;11.51;71.71
62059;BME280;48017;51.064;7.014;2022-12-29T11:07:29;99817.19;;;11.53;71.39
62059;BME280;48017;51.064;7.014;2022-12-29T11:09:55;99815.53;;;11.52;71.91
62059;BME280;48017;51.064;7.014;2022-12-29T11:12:40;99810.69;;;11.48;71.98
62059;BME280;48017;51.064;7.014;2022-12-29T11:17:43;99834.19;;;11.61;71.76
62059;BME280;48017;51.064;7.014;2022-12-29T11:20:36;99831.94;;;11.48;72.78
62059;BME280;48017;51.064;7.014;2022-12-29T11:23:40;99823.66;;;11.51;72.20
62059;BME280;48017;51.064;7.014;2022-12-29T11:26:23;99831.34;;;11.36;72.36
62059;BME280;48017;51.064;7.014;2022-12-29T11:29:16;99834.28;;;11.51;71.52
62059;BME280;48017;51.064;7.014;2022-12-29T11:31:49;99826.94;;;11.45;72.71
62059;BME280;48017;51.064;7.014;2022-12-29T11:34:19;99832.19;;;11.37;72.74
62059;BME280;48017;51.064;7.014;2022-12-29T11:36:46;99846.28;;;11.37;72.50
62059;BME280;48017;51.064;7.014;2022-12-29T11:42:05;99849.19;;;11.26;72.24
62059;BME280;48017;51.064;7.014;2022-12-29T11:44:41;99855.75;;;11.22;71.82
62059;BME280;48017;51.064;7.014;2022-12-29T11:47:09;99850.91;;;11.17;72.25
62059;BME280;48017;51.064;7.014;2022-12-29T11:49:38;99849.34;;;11.24;72.52
62059;BME280;48017;51.064;7.014;2022-12-29T11:52:04;99845.94;;;11.14;72.30
62059;BME280;48017;51.064;7.014;2022-12-29T11:54:33;99845.53;;;11.09;73.13
62059;BME280;48017;51.064;7.014;2022-12-29T11:57:10;99852.81;;;11.07;73.89
62059;BME280;48017;51.064;7.014;2022-12-29T11:59:43;99876.38;;;11.10;73.18
62059;BME280;48017;51.064;7.014;2022-12-29T12:05:01;99867.34;;;11.03;73.44
62059;BME280;48017;51.064;7.014;2022-12-29T12:07:43;99868.31;;;11.02;74.05
62059;BME280;48017;51.064;7.014;2022-12-29T12:10:26;99860.00;;;10.97;74.20
62059;BME280;48017;51.064;7.014;2022-12-29T12:13:07;99874.41;;;10.94;74.21
62059;BME280;48017;51.064;7.014;2022-12-29T12:15:44;99871.13;;;11.01;74.29
62059;BME280;48017;51.064;7.014;2022-12-29T12:18:18;99865.31;;;10.97;74.29
62059;BME280;48017;51.064;7.014;2022-12-29T12:20:54;99872.75;;;10.93;73.78
62059;BME280;48017;51.064;7.014;2022-12-29T12:26:18;99877.34;;;10.91;74.52
62059;BME280;48017;51.064;7.014;2022-12-29T12:28:57;99871.19;;;10.91;74.55
62059;BME280;48017;51.064;7.014;2022-12-29T12:34:03;99875.81;;;10.89;74.78
62059;BME280;48017;51.064;7.014;2022-12-29T12:36:49;99880.44;;;10.87;74.70
62059;BME280;48017;51.064;7.014;2022-12-29T12:39:27;99889.75;;;10.91;74.79
62059;BME280;48017;51.064;7.014;2022-12-29T12:42:18;99893.72;;;10.87;75.01
62059;BME280;48017;51.064;7.014;2022-12-29T12:45:35;99893.09;;;10.93;75.62
62059;BME280;48017;51.064;7.014;2022-12-29T12:53:22;99890.66;;;10.82;75.64
62059;BME280;48017;51.064;7.014;2022-12-29T12:55:58;99903.50;;;10.86;75.56
62059;BME280;48017;51.064;7.014;2022-12-29T12:58:40;99903.91;;;10.82;76.42
62059;BME280;48017;51.064;7.014;2022-12-29T13:01:23;99901.56;;;10.79;75.92
62059;BME280;48017;51.064;7.014;2022-12-29T13:27:37;99908.00;;;10.76;74.32
62059;BME280;48017;51.064;7.014;2022-12-29T13:30:09;99909.97;;;10.74;74.07
62059;BME280;48017;51.064;7.014;2022-12-29T13:32:56;99922.09;;;10.77;74.15
62059;BME280;48017;51.064;7.014;2022-12-29T13:38:15;99925.31;;;10.71;75.50
62059;BME280;48017;51.064;7.014;2022-12-29T13:40:47;99911.38;;;10.68;75.44
62059;BME280;48017;51.064;7.014;2022-12-29T13:43:16;99920.19;;;10.69;75.98
62059;BME280;48017;51.064;7.014;2022-12-29T13:45:43;99917.69;;;10.67;76.11
62059;BME280;48017;51.064;7.014;2022-12-29T13:48:23;99921.47;;;10.65;76.69
62059;BME280;48017;51.064;7.014;2022-12-29T13:50:57;99924.53;;;10.60;76.58
62059;BME280;48017;51.064;7.014;2022-12-29T13:53:32;99928.72;;;10.63;77.23
62059;BME280;48017;51.064;7.014;2022-12-29T14:01:34;99928.22;;;10.50;77.97
62059;BME280;48017;51.064;7.014;2022-12-29T14:04:04;99927.69;;;10.46;77.52
62059;BME280;48017;51.064;7.014;2022-12-29T14:06:35;99959.47;;;10.46;76.04
62059;BME280;48017;51.064;7.014;2022-12-29T14:09:06;99922.53;;;10.45;75.83
62059;BME280;48017;51.064;7.014;2022-12-29T14:11:51;99951.81;;;10.43;75.60
62059;BME280;48017;51.064;7.014;2022-12-29T14:16:46;99949.59;;;10.38;75.23
62059;BME280;48017;51.064;7.014;2022-12-29T14:21:50;99951.84;;;10.33;75.17
62059;BME280;48017;51.064;7.014;2022-12-29T14:34:55;99954.09;;;10.28;74.24
62059;BME280;48017;51.064;7.014;2022-12-29T14:42:30;99947.94;;;10.18;74.91
62059;BME280;48017;51.064;7.014;2022-12-29T14:45:02;99961.03;;;10.20;75.13
62059;BME280;48017;51.064;7.014;2022-12-29T14:47:34;99959.53;;;10.17;75.53
62059;BME280;48017;51.064;7.014;2022-12-29T14:58:28;99974.88;;;10.23;76.60
62059;BME280;48017;51.064;7.014;2022-12-29T15:00:55;99961.19;;;10.18;76.68
62059;BME280;48017;51.064;7.014;2022-12-29T15:03:36;99969.59;;;10.23;75.41
62059;BME280;48017;51.064;7.014;2022-12-29T15:06:23;99962.72;;;10.21;75.66
62059;BME280;48017;51.064;7.014;2022-12-29T15:08:51;99970.66;;;10.21;74.66
62059;BME280;48017;51.064;7.014;2022-12-29T15:11:40;99964.81;;;10.17;75.09
62059;BME280;48017;51.064;7.014;2022-12-29T15:14:36;99964.97;;;10.16;75.15
62059;BME280;48017;51.064;7.014;2022-12-29T15:17:23;99974.72;;;10.15;75.19
62059;BME280;48017;51.064;7.014;2022-12-29T15:19:49;99966.25;;;10.12;75.85
62059;BME280;48017;51.064;7.014;2022-12-29T15:22:14;99966.50;;;10.08;76.56
62059;BME280;48017;51.064;7.014;2022-12-29T15:24:44;99981.72;;;10.06;77.65
62059;BME280;48017;51.064;7.014;2022-12-29T15:27:13;99978.78;;;10.00;78.98
62059;BME280;48017;51.064;7.014;2022-12-29T15:29:41;99972.09;;;9.96;80.01
62059;BME280;48017;51.064;7.014;2022-12-29T15:34:43;99976.84;;;9.92;80.00